Adelma Beach, Washington
Current Conditions -  °F | °C
As of 5:56 PM on Friday 28 Nov 2014 (Local Time) from KNUW Reporting Station
Overcast Overcast  
Wind Chill: 38°   Ceiling: 4000
Heat Index: 42°   Visibility: 10mi
Dew Point: 35°   Wind: 6mph
Humidity: 76%   Direction: 150°SSE
Pressure: 29.49"   Gusts: NA
Location:  48.026°N, 122.859°W
Report Text: KNUW 290156Z 15005KT 10SM SCT020 BKN040 OVC080 06/02 A2949 RMK AO2 RAB19E30 SLP988 P0000 T00560017 $
Loading
Personal Weather Stations






























Interactive Weather Map New forecast layout! Learn more

10-Day Weather Forecast

Advertisements
Track Severe Weather on mobile